Terminal Aerodrome Forecast
Issued by NWS Cleveland, OH

Home | Current Version | Previous Version | Text Only | Print | Product List | Glossary On
Versions: 1 2 3 4 5 6 7 8 9 10 11 12 13
667
FTUS41 KCLE 272337
TAFYNG
TAF
KYNG 272337Z 2800/2824 02004KT P6SM FEW100
     FM280900 05005KT 5SM BR BKN100
     FM281500 04008KT P6SM BKN030
     FM282000 03012G20KT P6SM BKN050=

USA.gov is the U.S. government's official web portal to all federal, state and local government web resources and services.